sensor_id;sensor_type;location;lat;lon;timestamp;pressure;altitude;pressure_sealevel;temperature;humidity
41254;BME280;26987;59.928;30.306;2022-12-29T00:00:59;100979.78;;;0.10;79.58
41254;BME280;26987;59.928;30.306;2022-12-29T00:03:27;100991.16;;;0.10;80.63
41254;BME280;26987;59.928;30.306;2022-12-29T00:05:55;100976.00;;;0.03;79.84
41254;BME280;26987;59.928;30.306;2022-12-29T00:08:25;100980.69;;;-0.01;80.19
41254;BME280;26987;59.928;30.306;2022-12-29T00:11:06;100962.31;;;-0.13;79.64
41254;BME280;26987;59.928;30.306;2022-12-29T00:13:34;100993.94;;;0.09;80.71
41254;BME280;26987;59.928;30.306;2022-12-29T00:16:19;100990.72;;;0.05;79.82
41254;BME280;26987;59.928;30.306;2022-12-29T00:18:47;100996.44;;;0.10;79.65
41254;BME280;26987;59.928;30.306;2022-12-29T00:21:16;100998.63;;;0.05;79.71
41254;BME280;26987;59.928;30.306;2022-12-29T00:24:03;100998.75;;;0.04;79.46
41254;BME280;26987;59.928;30.306;2022-12-29T00:26:49;101001.53;;;0.02;80.23
41254;BME280;26987;59.928;30.306;2022-12-29T00:29:37;101003.19;;;0.03;80.30
41254;BME280;26987;59.928;30.306;2022-12-29T00:32:25;100987.59;;;-0.10;80.20
41254;BME280;26987;59.928;30.306;2022-12-29T00:35:14;100996.22;;;-0.08;80.70
41254;BME280;26987;59.928;30.306;2022-12-29T00:37:46;101013.31;;;-0.02;80.70
41254;BME280;26987;59.928;30.306;2022-12-29T00:40:35;101006.38;;;-0.03;80.61
41254;BME280;26987;59.928;30.306;2022-12-29T00:43:21;101009.94;;;-0.04;80.79
41254;BME280;26987;59.928;30.306;2022-12-29T00:46:05;101012.72;;;-0.06;80.46
41254;BME280;26987;59.928;30.306;2022-12-29T00:48:33;101013.69;;;-0.07;80.42
41254;BME280;26987;59.928;30.306;2022-12-29T00:51:18;101023.38;;;-0.07;80.80
41254;BME280;26987;59.928;30.306;2022-12-29T00:53:46;101016.97;;;-0.15;80.46
41254;BME280;26987;59.928;30.306;2022-12-29T00:56:15;101016.00;;;-0.14;81.23
41254;BME280;26987;59.928;30.306;2022-12-29T00:58:43;101017.94;;;-0.16;80.82
41254;BME280;26987;59.928;30.306;2022-12-29T01:01:10;101021.97;;;-0.11;81.54
41254;BME280;26987;59.928;30.306;2022-12-29T01:03:39;101019.22;;;-0.10;80.97
41254;BME280;26987;59.928;30.306;2022-12-29T01:06:08;101021.47;;;-0.05;80.79
41254;BME280;26987;59.928;30.306;2022-12-29T01:08:37;101013.09;;;-0.10;80.73
41254;BME280;26987;59.928;30.306;2022-12-29T01:11:06;101009.25;;;-0.06;80.69
41254;BME280;26987;59.928;30.306;2022-12-29T01:13:35;101007.31;;;-0.04;79.88
41254;BME280;26987;59.928;30.306;2022-12-29T01:16:04;101004.00;;;-0.06;79.83
41254;BME280;26987;59.928;30.306;2022-12-29T01:18:32;101004.81;;;-0.06;79.90
41254;BME280;26987;59.928;30.306;2022-12-29T01:21:01;101005.91;;;-0.08;80.43
41254;BME280;26987;59.928;30.306;2022-12-29T01:23:29;101003.53;;;-0.11;79.62
41254;BME280;26987;59.928;30.306;2022-12-29T01:25:57;101007.81;;;-0.10;80.17
41254;BME280;26987;59.928;30.306;2022-12-29T01:28:24;101006.63;;;-0.06;80.08
41254;BME280;26987;59.928;30.306;2022-12-29T01:30:53;101010.47;;;-0.10;80.59
41254;BME280;26987;59.928;30.306;2022-12-29T01:33:24;101015.06;;;-0.13;80.08
41254;BME280;26987;59.928;30.306;2022-12-29T01:35:52;101013.09;;;-0.10;80.66
41254;BME280;26987;59.928;30.306;2022-12-29T01:38:20;101020.31;;;-0.13;79.50
41254;BME280;26987;59.928;30.306;2022-12-29T01:40:47;100989.41;;;-0.32;79.72
41254;BME280;26987;59.928;30.306;2022-12-29T01:43:15;101010.28;;;-0.19;79.38
41254;BME280;26987;59.928;30.306;2022-12-29T01:45:45;101022.31;;;-0.05;80.16
41254;BME280;26987;59.928;30.306;2022-12-29T01:48:16;101009.00;;;-0.03;79.80
41254;BME280;26987;59.928;30.306;2022-12-29T01:50:49;101016.50;;;0.02;79.95
41254;BME280;26987;59.928;30.306;2022-12-29T01:53:21;101023.72;;;-0.01;79.27
41254;BME280;26987;59.928;30.306;2022-12-29T01:55:54;101011.50;;;-0.02;79.27
41254;BME280;26987;59.928;30.306;2022-12-29T01:58:26;101015.09;;;-0.03;78.78
41254;BME280;26987;59.928;30.306;2022-12-29T02:00:56;101013.16;;;-0.01;78.62
41254;BME280;26987;59.928;30.306;2022-12-29T02:03:26;101025.38;;;0.01;78.76
41254;BME280;26987;59.928;30.306;2022-12-29T02:05:58;101021.78;;;0.02;79.30
41254;BME280;26987;59.928;30.306;2022-12-29T02:08:28;101001.59;;;-0.09;79.15
41254;BME280;26987;59.928;30.306;2022-12-29T02:10:56;101028.47;;;0.06;78.82
41254;BME280;26987;59.928;30.306;2022-12-29T02:13:26;101018.13;;;-0.07;78.54
41254;BME280;26987;59.928;30.306;2022-12-29T02:16:02;101030.28;;;0.05;78.60
41254;BME280;26987;59.928;30.306;2022-12-29T02:18:40;101029.56;;;0.03;78.15
41254;BME280;26987;59.928;30.306;2022-12-29T02:27:55;101019.00;;;0.03;78.02
41254;BME280;26987;59.928;30.306;2022-12-29T02:30:43;101032.78;;;0.07;77.34
41254;BME280;26987;59.928;30.306;2022-12-29T02:33:20;101026.75;;;-0.05;77.04
41254;BME280;26987;59.928;30.306;2022-12-29T02:35:54;101006.81;;;-0.19;77.71
41254;BME280;26987;59.928;30.306;2022-12-29T02:38:33;101033.75;;;0.06;77.10
41254;BME280;26987;59.928;30.306;2022-12-29T02:41:07;101026.09;;;0.03;76.81
41254;BME280;26987;59.928;30.306;2022-12-29T02:43:41;101031.88;;;-0.04;76.63
41254;BME280;26987;59.928;30.306;2022-12-29T02:46:18;101022.88;;;-0.01;77.40
41254;BME280;26987;59.928;30.306;2022-12-29T02:48:54;101020.09;;;0.01;77.11
41254;BME280;26987;59.928;30.306;2022-12-29T02:51:29;101027.63;;;0.05;77.03
41254;BME280;26987;59.928;30.306;2022-12-29T02:53:59;101023.97;;;-0.04;77.45
41254;BME280;26987;59.928;30.306;2022-12-29T02:56:56;101023.00;;;-0.03;76.20
41254;BME280;26987;59.928;30.306;2022-12-29T02:59:24;101012.78;;;-0.17;76.39
41254;BME280;26987;59.928;30.306;2022-12-29T03:02:14;101024.22;;;-0.07;77.39
41254;BME280;26987;59.928;30.306;2022-12-29T03:05:17;101032.00;;;-0.05;78.11
41254;BME280;26987;59.928;30.306;2022-12-29T03:07:58;101026.09;;;-0.19;77.70
41254;BME280;26987;59.928;30.306;2022-12-29T03:10:35;101035.28;;;0.08;78.23
41254;BME280;26987;59.928;30.306;2022-12-29T03:13:13;101035.50;;;-0.05;77.68
41254;BME280;26987;59.928;30.306;2022-12-29T03:16:06;101044.47;;;-0.07;77.47
41254;BME280;26987;59.928;30.306;2022-12-29T03:18:46;101052.13;;;-0.04;77.36
41254;BME280;26987;59.928;30.306;2022-12-29T03:21:22;101045.47;;;-0.08;77.42
41254;BME280;26987;59.928;30.306;2022-12-29T03:24:17;101044.59;;;-0.09;76.91
41254;BME280;26987;59.928;30.306;2022-12-29T03:26:48;101044.75;;;-0.10;76.58
41254;BME280;26987;59.928;30.306;2022-12-29T03:29:20;101028.88;;;-0.20;76.60
41254;BME280;26987;59.928;30.306;2022-12-29T03:31:49;101046.81;;;-0.14;77.15
41254;BME280;26987;59.928;30.306;2022-12-29T03:34:21;101034.28;;;-0.22;76.35
41254;BME280;26987;59.928;30.306;2022-12-29T03:36:52;101045.28;;;-0.17;76.66
41254;BME280;26987;59.928;30.306;2022-12-29T03:39:22;101045.28;;;-0.17;76.36
41254;BME280;26987;59.928;30.306;2022-12-29T03:41:59;101046.34;;;-0.19;76.43
41254;BME280;26987;59.928;30.306;2022-12-29T03:44:33;101044.88;;;-0.33;75.43
41254;BME280;26987;59.928;30.306;2022-12-29T03:47:02;101040.44;;;-0.66;75.65
41254;BME280;26987;59.928;30.306;2022-12-29T03:49:32;101021.88;;;-0.97;76.83
41254;BME280;26987;59.928;30.306;2022-12-29T03:52:04;101043.44;;;-1.03;77.69
41254;BME280;26987;59.928;30.306;2022-12-29T03:54:37;101030.63;;;-1.08;78.13
41254;BME280;26987;59.928;30.306;2022-12-29T03:57:06;101039.84;;;-1.02;78.62
41254;BME280;26987;59.928;30.306;2022-12-29T03:59:45;101031.94;;;-1.02;78.66
41254;BME280;26987;59.928;30.306;2022-12-29T04:02:12;101034.38;;;-1.10;78.82
41254;BME280;26987;59.928;30.306;2022-12-29T04:04:42;101018.25;;;-1.29;78.87
41254;BME280;26987;59.928;30.306;2022-12-29T04:07:10;101034.16;;;-1.30;79.53
41254;BME280;26987;59.928;30.306;2022-12-29T04:09:39;101040.13;;;-1.28;79.54
41254;BME280;26987;59.928;30.306;2022-12-29T04:12:09;101031.97;;;-1.25;79.96
41254;BME280;26987;59.928;30.306;2022-12-29T04:14:37;101030.56;;;-1.18;79.67
41254;BME280;26987;59.928;30.306;2022-12-29T04:17:04;101028.50;;;-1.14;79.37
41254;BME280;26987;59.928;30.306;2022-12-29T04:19:33;101033.63;;;-1.12;79.63
41254;BME280;26987;59.928;30.306;2022-12-29T04:22:02;101013.06;;;-1.19;79.27
41254;BME280;26987;59.928;30.306;2022-12-29T04:24:30;101030.31;;;-1.15;79.66
41254;BME280;26987;59.928;30.306;2022-12-29T04:26:58;101036.63;;;-1.06;79.26
41254;BME280;26987;59.928;30.306;2022-12-29T04:29:51;101043.44;;;-1.03;79.36
41254;BME280;26987;59.928;30.306;2022-12-29T04:32:48;101040.69;;;-1.02;79.28
41254;BME280;26987;59.928;30.306;2022-12-29T04:35:16;101029.91;;;-0.98;79.50
41254;BME280;26987;59.928;30.306;2022-12-29T04:37:45;101034.19;;;-0.86;79.05
41254;BME280;26987;59.928;30.306;2022-12-29T04:40:13;101036.94;;;-0.87;78.89
41254;BME280;26987;59.928;30.306;2022-12-29T04:42:41;101034.75;;;-0.82;78.82
41254;BME280;26987;59.928;30.306;2022-12-29T04:45:09;101036.19;;;-0.78;78.89
41254;BME280;26987;59.928;30.306;2022-12-29T04:47:50;101030.59;;;-0.85;78.46
41254;BME280;26987;59.928;30.306;2022-12-29T04:50:50;101036.34;;;-0.91;78.57
41254;BME280;26987;59.928;30.306;2022-12-29T04:53:22;101038.38;;;-0.95;79.27
41254;BME280;26987;59.928;30.306;2022-12-29T04:55:52;101035.38;;;-0.90;78.99
41254;BME280;26987;59.928;30.306;2022-12-29T04:58:21;101037.19;;;-0.91;78.88
41254;BME280;26987;59.928;30.306;2022-12-29T05:00:50;101042.28;;;-0.78;79.30
41254;BME280;26987;59.928;30.306;2022-12-29T05:03:21;101042.78;;;-0.72;79.05
41254;BME280;26987;59.928;30.306;2022-12-29T05:05:52;101038.78;;;-0.67;79.17
41254;BME280;26987;59.928;30.306;2022-12-29T05:08:21;101036.03;;;-0.65;78.93
41254;BME280;26987;59.928;30.306;2022-12-29T05:10:50;101036.97;;;-0.66;78.78
41254;BME280;26987;59.928;30.306;2022-12-29T05:13:17;101039.84;;;-0.69;78.94
41254;BME280;26987;59.928;30.306;2022-12-29T05:15:49;101003.66;;;-0.89;78.72
41254;BME280;26987;59.928;30.306;2022-12-29T05:18:18;101041.66;;;-0.70;79.55
41254;BME280;26987;59.928;30.306;2022-12-29T05:20:46;101047.75;;;-0.69;79.28
41254;BME280;26987;59.928;30.306;2022-12-29T05:23:15;101033.91;;;-0.83;79.38
41254;BME280;26987;59.928;30.306;2022-12-29T05:25:44;101053.19;;;-0.71;78.91
41254;BME280;26987;59.928;30.306;2022-12-29T05:28:18;101039.78;;;-0.79;79.47
41254;BME280;26987;59.928;30.306;2022-12-29T05:30:52;101059.06;;;-0.79;79.27
41254;BME280;26987;59.928;30.306;2022-12-29T05:33:20;101050.44;;;-0.81;79.20
41254;BME280;26987;59.928;30.306;2022-12-29T05:35:49;101048.06;;;-0.84;79.76
41254;BME280;26987;59.928;30.306;2022-12-29T05:38:18;101049.13;;;-0.86;79.82
41254;BME280;26987;59.928;30.306;2022-12-29T05:40:47;101051.53;;;-0.83;79.75
41254;BME280;26987;59.928;30.306;2022-12-29T05:43:38;101045.09;;;-0.91;79.68
41254;BME280;26987;59.928;30.306;2022-12-29T05:46:24;101049.50;;;-0.91;79.62
41254;BME280;26987;59.928;30.306;2022-12-29T05:49:18;101053.47;;;-0.97;79.54
41254;BME280;26987;59.928;30.306;2022-12-29T05:51:55;101048.56;;;-1.02;80.30
41254;BME280;26987;59.928;30.306;2022-12-29T05:54:23;101054.22;;;-1.06;80.06
41254;BME280;26987;59.928;30.306;2022-12-29T05:56:53;101051.81;;;-1.09;80.41
41254;BME280;26987;59.928;30.306;2022-12-29T05:59:21;101052.53;;;-1.19;80.23
41254;BME280;26987;59.928;30.306;2022-12-29T06:01:49;101055.78;;;-1.15;81.24
41254;BME280;26987;59.928;30.306;2022-12-29T06:04:17;101055.91;;;-1.17;80.98
41254;BME280;26987;59.928;30.306;2022-12-29T06:06:44;101052.09;;;-1.24;81.79
41254;BME280;26987;59.928;30.306;2022-12-29T06:09:21;101056.75;;;-1.16;81.67
41254;BME280;26987;59.928;30.306;2022-12-29T06:11:49;101056.88;;;-1.18;81.59
41254;BME280;26987;59.928;30.306;2022-12-29T06:14:20;101070.28;;;-1.21;82.13
41254;BME280;26987;59.928;30.306;2022-12-29T06:16:48;101058.19;;;-1.35;81.66
41254;BME280;26987;59.928;30.306;2022-12-29T06:19:17;101061.19;;;-1.28;82.25
41254;BME280;26987;59.928;30.306;2022-12-29T06:21:44;101059.38;;;-1.28;82.12
41254;BME280;26987;59.928;30.306;2022-12-29T06:24:12;101046.13;;;-1.37;82.53
41254;BME280;26987;59.928;30.306;2022-12-29T06:26:40;101072.41;;;-1.26;82.83
41254;BME280;26987;59.928;30.306;2022-12-29T06:29:08;101065.38;;;-1.25;82.68
41254;BME280;26987;59.928;30.306;2022-12-29T06:31:38;101057.34;;;-1.24;83.24
41254;BME280;26987;59.928;30.306;2022-12-29T06:34:05;101053.19;;;-1.27;83.16
41254;BME280;26987;59.928;30.306;2022-12-29T06:36:33;101064.19;;;-1.33;82.87
41254;BME280;26987;59.928;30.306;2022-12-29T06:39:01;101058.66;;;-1.41;83.04
41254;BME280;26987;59.928;30.306;2022-12-29T06:41:29;101058.44;;;-1.49;83.81
41254;BME280;26987;59.928;30.306;2022-12-29T06:44:31;101047.19;;;-1.52;83.77
41254;BME280;26987;59.928;30.306;2022-12-29T06:47:06;101061.66;;;-1.57;84.39
41254;BME280;26987;59.928;30.306;2022-12-29T06:49:34;101064.53;;;-1.49;84.03
41254;BME280;26987;59.928;30.306;2022-12-29T06:52:02;101044.44;;;-1.61;84.07
41254;BME280;26987;59.928;30.306;2022-12-29T06:54:31;101060.22;;;-1.50;84.67
41254;BME280;26987;59.928;30.306;2022-12-29T06:56:59;101040.47;;;-1.67;84.42
41254;BME280;26987;59.928;30.306;2022-12-29T06:59:27;101056.16;;;-1.54;84.82
41254;BME280;26987;59.928;30.306;2022-12-29T07:01:54;101063.47;;;-1.46;84.63
41254;BME280;26987;59.928;30.306;2022-12-29T07:04:24;101064.75;;;-1.52;84.44
41254;BME280;26987;59.928;30.306;2022-12-29T07:06:51;101066.44;;;-1.62;84.52
41254;BME280;26987;59.928;30.306;2022-12-29T07:09:19;101061.16;;;-1.74;84.97
41254;BME280;26987;59.928;30.306;2022-12-29T07:11:46;101062.84;;;-1.84;85.98
41254;BME280;26987;59.928;30.306;2022-12-29T07:14:14;101063.06;;;-1.87;86.68
41254;BME280;26987;59.928;30.306;2022-12-29T07:16:42;101075.00;;;-1.95;87.28
41254;BME280;26987;59.928;30.306;2022-12-29T07:19:09;101069.25;;;-2.00;87.54
41254;BME280;26987;59.928;30.306;2022-12-29T07:21:38;101074.03;;;-2.05;87.75
41254;BME280;26987;59.928;30.306;2022-12-29T07:24:07;101072.31;;;-2.06;88.65
41254;BME280;26987;59.928;30.306;2022-12-29T07:26:35;101059.06;;;-2.16;89.02
41254;BME280;26987;59.928;30.306;2022-12-29T07:29:03;101081.34;;;-1.97;89.08
41254;BME280;26987;59.928;30.306;2022-12-29T07:31:31;101087.91;;;-1.92;89.07
41254;BME280;26987;59.928;30.306;2022-12-29T07:33:59;101076.81;;;-1.84;88.99
41254;BME280;26987;59.928;30.306;2022-12-29T07:36:26;101074.66;;;-1.79;88.59
41254;BME280;26987;59.928;30.306;2022-12-29T07:38:56;101086.84;;;-1.78;88.53
41254;BME280;26987;59.928;30.306;2022-12-29T07:41:23;101084.94;;;-1.75;89.14
41254;BME280;26987;59.928;30.306;2022-12-29T07:43:51;101095.59;;;-1.77;88.93
41254;BME280;26987;59.928;30.306;2022-12-29T07:46:41;101110.06;;;-1.71;88.88
41254;BME280;26987;59.928;30.306;2022-12-29T07:49:09;101091.41;;;-1.80;88.75
41254;BME280;26987;59.928;30.306;2022-12-29T07:51:36;101098.00;;;-1.62;88.82
41254;BME280;26987;59.928;30.306;2022-12-29T07:54:05;101097.28;;;-1.53;88.89
41254;BME280;26987;59.928;30.306;2022-12-29T07:56:33;101100.75;;;-1.53;88.19
41254;BME280;26987;59.928;30.306;2022-12-29T07:59:01;101096.09;;;-1.49;88.81
41254;BME280;26987;59.928;30.306;2022-12-29T08:01:29;101097.91;;;-1.49;88.38
41254;BME280;26987;59.928;30.306;2022-12-29T08:03:56;101084.72;;;-1.61;88.59
41254;BME280;26987;59.928;30.306;2022-12-29T08:06:24;101047.75;;;-1.94;89.05
41254;BME280;26987;59.928;30.306;2022-12-29T08:08:52;101076.44;;;-1.91;89.76
41254;BME280;26987;59.928;30.306;2022-12-29T08:11:23;101081.94;;;-1.94;90.19
41254;BME280;26987;59.928;30.306;2022-12-29T08:13:51;101027.72;;;-2.31;90.17
41254;BME280;26987;59.928;30.306;2022-12-29T08:16:19;101062.53;;;-2.16;90.62
41254;BME280;26987;59.928;30.306;2022-12-29T08:18:46;101082.13;;;-2.08;90.73
41254;BME280;26987;59.928;30.306;2022-12-29T08:21:14;101073.53;;;-2.10;90.76
41254;BME280;26987;59.928;30.306;2022-12-29T08:23:42;101077.97;;;-2.11;90.92
41254;BME280;26987;59.928;30.306;2022-12-29T08:26:10;101060.72;;;-2.15;90.97
41254;BME280;26987;59.928;30.306;2022-12-29T08:28:39;101077.34;;;-2.03;91.13
41254;BME280;26987;59.928;30.306;2022-12-29T08:31:07;101063.75;;;-2.08;91.39
41254;BME280;26987;59.928;30.306;2022-12-29T08:33:35;101072.97;;;-1.91;92.08
41254;BME280;26987;59.928;30.306;2022-12-29T08:36:04;101067.13;;;-1.83;91.51
41254;BME280;26987;59.928;30.306;2022-12-29T08:38:32;101068.72;;;-1.69;91.39
41254;BME280;26987;59.928;30.306;2022-12-29T08:41:00;101068.81;;;-1.71;90.29
41254;BME280;26987;59.928;30.306;2022-12-29T08:43:29;101075.50;;;-1.78;90.24
41254;BME280;26987;59.928;30.306;2022-12-29T08:45:58;101073.00;;;-1.80;90.30
41254;BME280;26987;59.928;30.306;2022-12-29T08:48:26;101067.75;;;-1.80;90.98
41254;BME280;26987;59.928;30.306;2022-12-29T08:50:54;101073.59;;;-1.76;91.01
41254;BME280;26987;59.928;30.306;2022-12-29T08:53:21;101072.31;;;-1.70;91.27
41254;BME280;26987;59.928;30.306;2022-12-29T08:55:55;101076.47;;;-1.68;90.92
41254;BME280;26987;59.928;30.306;2022-12-29T08:58:24;101075.75;;;-1.81;90.87
41254;BME280;26987;59.928;30.306;2022-12-29T09:00:52;101078.84;;;-1.87;91.15
41254;BME280;26987;59.928;30.306;2022-12-29T09:03:23;101076.09;;;-1.97;91.78
41254;BME280;26987;59.928;30.306;2022-12-29T09:05:51;101079.75;;;-2.00;91.94
41254;BME280;26987;59.928;30.306;2022-12-29T09:08:19;101090.03;;;-1.97;92.85
41254;BME280;26987;59.928;30.306;2022-12-29T09:10:47;101101.06;;;-1.92;92.43
41254;BME280;26987;59.928;30.306;2022-12-29T09:13:16;101095.22;;;-1.84;92.72
41254;BME280;26987;59.928;30.306;2022-12-29T09:15:43;101081.81;;;-1.81;92.32
41254;BME280;26987;59.928;30.306;2022-12-29T09:18:11;101090.09;;;-1.85;92.22
41254;BME280;26987;59.928;30.306;2022-12-29T09:20:40;101093.88;;;-1.90;93.11
41254;BME280;26987;59.928;30.306;2022-12-29T09:23:08;101098.31;;;-1.90;93.17
41254;BME280;26987;59.928;30.306;2022-12-29T09:25:36;101045.53;;;-2.23;92.26
41254;BME280;26987;59.928;30.306;2022-12-29T09:28:04;101108.72;;;-1.88;92.40
41254;BME280;26987;59.928;30.306;2022-12-29T09:30:33;101097.22;;;-1.99;92.13
41254;BME280;26987;59.928;30.306;2022-12-29T09:33:01;101085.22;;;-2.14;92.91
41254;BME280;26987;59.928;30.306;2022-12-29T09:35:29;101098.25;;;-2.13;93.50
41254;BME280;26987;59.928;30.306;2022-12-29T09:37:58;101091.31;;;-2.14;93.94
41254;BME280;26987;59.928;30.306;2022-12-29T09:40:28;101094.78;;;-2.13;94.24
41254;BME280;26987;59.928;30.306;2022-12-29T09:43:12;101090.38;;;-2.13;93.95
41254;BME280;26987;59.928;30.306;2022-12-29T09:45:45;101089.53;;;-2.38;94.63
41254;BME280;26987;59.928;30.306;2022-12-29T09:48:17;101091.47;;;-2.40;95.15
41254;BME280;26987;59.928;30.306;2022-12-29T09:50:50;101086.13;;;-2.51;95.80
41254;BME280;26987;59.928;30.306;2022-12-29T09:53:24;101084.34;;;-2.51;96.77
41254;BME280;26987;59.928;30.306;2022-12-29T09:55:55;101073.47;;;-2.58;95.87
41254;BME280;26987;59.928;30.306;2022-12-29T09:58:26;101079.84;;;-2.49;96.41
41254;BME280;26987;59.928;30.306;2022-12-29T10:01:01;101081.03;;;-2.53;96.51
41254;BME280;26987;59.928;30.306;2022-12-29T10:03:40;101082.91;;;-2.55;97.47
41254;BME280;26987;59.928;30.306;2022-12-29T10:06:11;101080.78;;;-2.50;97.50
41254;BME280;26987;59.928;30.306;2022-12-29T10:08:48;101073.63;;;-2.48;97.46
41254;BME280;26987;59.928;30.306;2022-12-29T10:11:35;101080.09;;;-2.41;97.61
41254;BME280;26987;59.928;30.306;2022-12-29T10:14:19;101074.63;;;-2.37;97.11
41254;BME280;26987;59.928;30.306;2022-12-29T10:17:01;101080.63;;;-2.35;97.53
41254;BME280;26987;59.928;30.306;2022-12-29T10:19:44;101093.00;;;-2.37;97.36
41254;BME280;26987;59.928;30.306;2022-12-29T10:22:23;101087.53;;;-2.34;97.69
41254;BME280;26987;59.928;30.306;2022-12-29T10:24:56;101088.94;;;-2.42;97.61
41254;BME280;26987;59.928;30.306;2022-12-29T10:27:24;101084.13;;;-2.48;97.65
41254;BME280;26987;59.928;30.306;2022-12-29T10:29:54;101089.84;;;-2.54;98.02
41254;BME280;26987;59.928;30.306;2022-12-29T10:32:30;101071.06;;;-2.61;98.52
41254;BME280;26987;59.928;30.306;2022-12-29T10:35:05;101083.75;;;-2.55;98.14
41254;BME280;26987;59.928;30.306;2022-12-29T10:37:38;101080.84;;;-2.63;98.44
41254;BME280;26987;59.928;30.306;2022-12-29T10:40:19;101077.25;;;-2.62;99.03
41254;BME280;26987;59.928;30.306;2022-12-29T10:42:53;101067.25;;;-2.81;98.88
41254;BME280;26987;59.928;30.306;2022-12-29T10:45:24;101074.44;;;-2.83;99.41
41254;BME280;26987;59.928;30.306;2022-12-29T10:47:58;101080.91;;;-2.76;99.36
41254;BME280;26987;59.928;30.306;2022-12-29T10:50:27;101077.53;;;-2.78;99.34
41254;BME280;26987;59.928;30.306;2022-12-29T10:52:58;101074.69;;;-2.75;99.30
41254;BME280;26987;59.928;30.306;2022-12-29T10:55:32;101077.09;;;-2.72;99.86
41254;BME280;26987;59.928;30.306;2022-12-29T10:58:04;100961.38;;;-3.42;98.28
41254;BME280;26987;59.928;30.306;2022-12-29T11:00:32;101077.22;;;-2.73;98.99
41254;BME280;26987;59.928;30.306;2022-12-29T11:03:16;101033.78;;;-2.91;98.04
41254;BME280;26987;59.928;30.306;2022-12-29T11:05:52;101066.94;;;-2.76;98.39
41254;BME280;26987;59.928;30.306;2022-12-29T11:08:24;101067.25;;;-2.81;99.18
41254;BME280;26987;59.928;30.306;2022-12-29T11:10:59;101069.19;;;-2.83;98.53
41254;BME280;26987;59.928;30.306;2022-12-29T11:13:30;101046.69;;;-3.12;98.66
41254;BME280;26987;59.928;30.306;2022-12-29T11:15:58;101069.03;;;-3.06;100.00
41254;BME280;26987;59.928;30.306;2022-12-29T11:18:32;101057.91;;;-3.10;100.00
41254;BME280;26987;59.928;30.306;2022-12-29T11:21:02;101068.81;;;-3.03;100.00
41254;BME280;26987;59.928;30.306;2022-12-29T11:23:32;101075.50;;;-2.99;100.00
41254;BME280;26987;59.928;30.306;2022-12-29T11:26:23;101070.16;;;-2.97;100.00
41254;BME280;26987;59.928;30.306;2022-12-29T11:29:11;101071.53;;;-3.05;100.00
41254;BME280;26987;59.928;30.306;2022-12-29T11:31:45;101068.50;;;-2.98;100.00
41254;BME280;26987;59.928;30.306;2022-12-29T11:34:19;101059.56;;;-2.96;100.00
41254;BME280;26987;59.928;30.306;2022-12-29T11:36:47;101065.97;;;-3.00;100.00
41254;BME280;26987;59.928;30.306;2022-12-29T11:39:37;101053.06;;;-3.03;100.00
41254;BME280;26987;59.928;30.306;2022-12-29T11:42:14;101066.63;;;-3.09;100.00
41254;BME280;26987;59.928;30.306;2022-12-29T11:44:44;101055.00;;;-3.18;100.00
41254;BME280;26987;59.928;30.306;2022-12-29T11:47:21;101052.47;;;-3.20;100.00
41254;BME280;26987;59.928;30.306;2022-12-29T11:49:51;101042.09;;;-3.34;100.00
41254;BME280;26987;59.928;30.306;2022-12-29T11:52:22;101052.28;;;-3.30;100.00
41254;BME280;26987;59.928;30.306;2022-12-29T11:54:51;101047.88;;;-3.29;100.00
41254;BME280;26987;59.928;30.306;2022-12-29T11:57:22;101060.25;;;-3.31;100.00
41254;BME280;26987;59.928;30.306;2022-12-29T11:59:52;101047.06;;;-3.43;100.00
41254;BME280;26987;59.928;30.306;2022-12-29T12:02:34;101038.66;;;-3.48;100.00
41254;BME280;26987;59.928;30.306;2022-12-29T12:05:08;101039.72;;;-3.50;100.00
41254;BME280;26987;59.928;30.306;2022-12-29T12:07:40;101044.72;;;-3.34;100.00
41254;BME280;26987;59.928;30.306;2022-12-29T12:10:16;101045.38;;;-3.31;100.00
41254;BME280;26987;59.928;30.306;2022-12-29T12:12:52;101038.03;;;-3.38;100.00
41254;BME280;26987;59.928;30.306;2022-12-29T12:15:35;101048.91;;;-3.19;100.00
41254;BME280;26987;59.928;30.306;2022-12-29T12:18:09;101028.88;;;-3.33;100.00
41254;BME280;26987;59.928;30.306;2022-12-29T12:20:43;101041.91;;;-3.31;100.00
41254;BME280;26987;59.928;30.306;2022-12-29T12:23:19;101045.56;;;-3.34;100.00
41254;BME280;26987;59.928;30.306;2022-12-29T12:25:56;101044.41;;;-3.30;100.00
41254;BME280;26987;59.928;30.306;2022-12-29T12:28:28;101048.06;;;-3.19;100.00
41254;BME280;26987;59.928;30.306;2022-12-29T12:30:59;101053.13;;;-3.29;100.00
41254;BME280;26987;59.928;30.306;2022-12-29T12:33:34;101041.59;;;-3.39;100.00
41254;BME280;26987;59.928;30.306;2022-12-29T12:36:18;101040.00;;;-3.29;100.00
41254;BME280;26987;59.928;30.306;2022-12-29T12:38:54;101035.03;;;-3.21;100.00
41254;BME280;26987;59.928;30.306;2022-12-29T12:41:31;101027.38;;;-3.11;100.00
41254;BME280;26987;59.928;30.306;2022-12-29T12:44:11;101049.72;;;-3.05;100.00
41254;BME280;26987;59.928;30.306;2022-12-29T12:46:54;101033.34;;;-3.09;100.00
41254;BME280;26987;59.928;30.306;2022-12-29T12:50:06;101030.31;;;-3.15;100.00
41254;BME280;26987;59.928;30.306;2022-12-29T12:52:48;101025.28;;;-3.19;100.00
41254;BME280;26987;59.928;30.306;2022-12-29T12:55:43;101032.09;;;-3.16;100.00
41254;BME280;26987;59.928;30.306;2022-12-29T12:58:21;101035.28;;;-3.24;100.00
41254;BME280;26987;59.928;30.306;2022-12-29T13:01:01;101024.28;;;-3.29;100.00
41254;BME280;26987;59.928;30.306;2022-12-29T13:03:47;101002.06;;;-3.36;100.00
41254;BME280;26987;59.928;30.306;2022-12-29T13:06:26;101023.63;;;-3.20;100.00
41254;BME280;26987;59.928;30.306;2022-12-29T13:09:11;101024.84;;;-3.12;100.00
41254;BME280;26987;59.928;30.306;2022-12-29T13:11:53;101020.09;;;-3.07;100.00
41254;BME280;26987;59.928;30.306;2022-12-29T13:14:33;101008.91;;;-3.09;100.00
41254;BME280;26987;59.928;30.306;2022-12-29T13:17:08;101032.25;;;-2.93;100.00